sensor_id;sensor_type;location;lat;lon;timestamp;temperature;humidity
59975;DHT22;62136;-35.664;-63.766;2022-12-29T00:00:16;29.70;32.20
59975;DHT22;62136;-35.664;-63.766;2022-12-29T00:02:43;29.70;32.20
59975;DHT22;62136;-35.664;-63.766;2022-12-29T00:05:10;29.70;32.10
59975;DHT22;62136;-35.664;-63.766;2022-12-29T00:07:37;29.70;32.20
59975;DHT22;62136;-35.664;-63.766;2022-12-29T00:10:05;29.60;32.10
59975;DHT22;62136;-35.664;-63.766;2022-12-29T00:12:32;29.60;32.20
59975;DHT22;62136;-35.664;-63.766;2022-12-29T00:15:19;29.60;32.10
59975;DHT22;62136;-35.664;-63.766;2022-12-29T00:18:04;29.60;32.30
59975;DHT22;62136;-35.664;-63.766;2022-12-29T00:20:34;29.60;32.20
59975;DHT22;62136;-35.664;-63.766;2022-12-29T00:23:20;29.60;32.30
59975;DHT22;62136;-35.664;-63.766;2022-12-29T00:26:15;29.50;32.30
59975;DHT22;62136;-35.664;-63.766;2022-12-29T00:29:01;29.50;32.30
59975;DHT22;62136;-35.664;-63.766;2022-12-29T00:31:47;29.50;32.30
59975;DHT22;62136;-35.664;-63.766;2022-12-29T00:34:31;29.50;32.20
59975;DHT22;62136;-35.664;-63.766;2022-12-29T00:37:17;29.40;32.20
59975;DHT22;62136;-35.664;-63.766;2022-12-29T00:40:04;29.40;32.30
59975;DHT22;62136;-35.664;-63.766;2022-12-29T00:42:53;29.40;32.30
59975;DHT22;62136;-35.664;-63.766;2022-12-29T00:45:41;29.40;32.20
59975;DHT22;62136;-35.664;-63.766;2022-12-29T00:48:08;29.40;32.40
59975;DHT22;62136;-35.664;-63.766;2022-12-29T00:50:35;29.30;32.30
59975;DHT22;62136;-35.664;-63.766;2022-12-29T00:53:02;29.30;32.30
59975;DHT22;62136;-35.664;-63.766;2022-12-29T00:55:29;29.30;32.30
59975;DHT22;62136;-35.664;-63.766;2022-12-29T00:57:56;29.30;32.30
59975;DHT22;62136;-35.664;-63.766;2022-12-29T01:00:23;29.30;32.30
59975;DHT22;62136;-35.664;-63.766;2022-12-29T01:02:53;29.30;32.30
59975;DHT22;62136;-35.664;-63.766;2022-12-29T01:05:20;29.20;32.30
59975;DHT22;62136;-35.664;-63.766;2022-12-29T01:07:47;29.20;32.30
59975;DHT22;62136;-35.664;-63.766;2022-12-29T01:10:14;29.20;32.40
59975;DHT22;62136;-35.664;-63.766;2022-12-29T01:12:41;29.20;32.40
59975;DHT22;62136;-35.664;-63.766;2022-12-29T01:15:11;29.20;32.40
59975;DHT22;62136;-35.664;-63.766;2022-12-29T01:17:38;29.20;32.50
59975;DHT22;62136;-35.664;-63.766;2022-12-29T01:20:06;29.10;32.40
59975;DHT22;62136;-35.664;-63.766;2022-12-29T01:22:33;29.10;32.40
59975;DHT22;62136;-35.664;-63.766;2022-12-29T01:25:00;29.10;32.40
59975;DHT22;62136;-35.664;-63.766;2022-12-29T01:27:27;29.10;32.40
59975;DHT22;62136;-35.664;-63.766;2022-12-29T01:29:54;29.10;32.40
59975;DHT22;62136;-35.664;-63.766;2022-12-29T01:32:21;29.10;32.50
59975;DHT22;62136;-35.664;-63.766;2022-12-29T01:34:48;29.00;32.40
59975;DHT22;62136;-35.664;-63.766;2022-12-29T01:37:15;29.10;32.50
59975;DHT22;62136;-35.664;-63.766;2022-12-29T01:39:42;29.00;32.50
59975;DHT22;62136;-35.664;-63.766;2022-12-29T01:42:17;29.00;32.50
59975;DHT22;62136;-35.664;-63.766;2022-12-29T01:44:52;29.00;32.50
59975;DHT22;62136;-35.664;-63.766;2022-12-29T01:47:24;29.00;32.50
59975;DHT22;62136;-35.664;-63.766;2022-12-29T01:49:57;29.00;32.60
59975;DHT22;62136;-35.664;-63.766;2022-12-29T01:52:28;29.00;32.60
59975;DHT22;62136;-35.664;-63.766;2022-12-29T01:54:57;28.90;32.90
59975;DHT22;62136;-35.664;-63.766;2022-12-29T01:57:29;28.90;32.60
59975;DHT22;62136;-35.664;-63.766;2022-12-29T02:00:00;28.90;32.50
59975;DHT22;62136;-35.664;-63.766;2022-12-29T02:02:30;28.90;32.50
59975;DHT22;62136;-35.664;-63.766;2022-12-29T02:04:58;28.90;32.50
59975;DHT22;62136;-35.664;-63.766;2022-12-29T02:07:29;28.90;32.60
59975;DHT22;62136;-35.664;-63.766;2022-12-29T02:09:58;28.80;32.60
59975;DHT22;62136;-35.664;-63.766;2022-12-29T02:12:29;28.80;32.50
59975;DHT22;62136;-35.664;-63.766;2022-12-29T02:15:01;28.70;32.50
59975;DHT22;62136;-35.664;-63.766;2022-12-29T02:31:31;28.70;32.50
59975;DHT22;62136;-35.664;-63.766;2022-12-29T02:34:52;28.70;32.30
59975;DHT22;62136;-35.664;-63.766;2022-12-29T02:39:48;28.60;32.30
59975;DHT22;62136;-35.664;-63.766;2022-12-29T02:46:21;28.60;32.40
59975;DHT22;62136;-35.664;-63.766;2022-12-29T02:48:24;28.60;32.40
59975;DHT22;62136;-35.664;-63.766;2022-12-29T02:51:06;28.50;32.30
59975;DHT22;62136;-35.664;-63.766;2022-12-29T02:53:36;28.50;32.30
59975;DHT22;62136;-35.664;-63.766;2022-12-29T02:56:22;28.50;32.20
59975;DHT22;62136;-35.664;-63.766;2022-12-29T02:58:49;28.50;32.30
59975;DHT22;62136;-35.664;-63.766;2022-12-29T03:01:45;28.50;32.30
59975;DHT22;62136;-35.664;-63.766;2022-12-29T03:07:17;28.40;32.50
59975;DHT22;62136;-35.664;-63.766;2022-12-29T03:09:59;28.40;32.50
59975;DHT22;62136;-35.664;-63.766;2022-12-29T03:12:52;28.40;32.50
59975;DHT22;62136;-35.664;-63.766;2022-12-29T03:15:43;28.40;32.20
59975;DHT22;62136;-35.664;-63.766;2022-12-29T03:21:19;28.30;32.80
59975;DHT22;62136;-35.664;-63.766;2022-12-29T03:23:49;28.30;32.50
59975;DHT22;62136;-35.664;-63.766;2022-12-29T03:26:18;28.30;32.50
59975;DHT22;62136;-35.664;-63.766;2022-12-29T03:28:51;28.30;32.30
59975;DHT22;62136;-35.664;-63.766;2022-12-29T03:31:20;28.30;32.30
59975;DHT22;62136;-35.664;-63.766;2022-12-29T03:33:49;28.30;32.30
59975;DHT22;62136;-35.664;-63.766;2022-12-29T03:36:29;28.20;32.40
59975;DHT22;62136;-35.664;-63.766;2022-12-29T03:39:10;28.20;32.40
59975;DHT22;62136;-35.664;-63.766;2022-12-29T03:41:45;28.20;32.30
59975;DHT22;62136;-35.664;-63.766;2022-12-29T03:44:15;28.20;32.30
59975;DHT22;62136;-35.664;-63.766;2022-12-29T03:46:42;28.20;32.30
59975;DHT22;62136;-35.664;-63.766;2022-12-29T03:49:09;28.10;32.30
59975;DHT22;62136;-35.664;-63.766;2022-12-29T03:51:39;28.10;32.40
59975;DHT22;62136;-35.664;-63.766;2022-12-29T03:54:06;28.10;32.40
59975;DHT22;62136;-35.664;-63.766;2022-12-29T03:56:38;28.10;32.40
59975;DHT22;62136;-35.664;-63.766;2022-12-29T03:59:05;28.00;32.30
59975;DHT22;62136;-35.664;-63.766;2022-12-29T04:01:32;28.00;32.40
59975;DHT22;62136;-35.664;-63.766;2022-12-29T04:04:02;28.00;32.40
59975;DHT22;62136;-35.664;-63.766;2022-12-29T04:06:29;28.00;32.40
59975;DHT22;62136;-35.664;-63.766;2022-12-29T04:08:56;28.00;32.30
59975;DHT22;62136;-35.664;-63.766;2022-12-29T04:11:23;28.00;32.30
59975;DHT22;62136;-35.664;-63.766;2022-12-29T04:13:50;27.90;32.40
59975;DHT22;62136;-35.664;-63.766;2022-12-29T04:16:17;27.90;32.30
59975;DHT22;62136;-35.664;-63.766;2022-12-29T04:18:44;27.90;32.20
59975;DHT22;62136;-35.664;-63.766;2022-12-29T04:21:12;27.90;32.40
59975;DHT22;62136;-35.664;-63.766;2022-12-29T04:23:39;27.80;32.30
59975;DHT22;62136;-35.664;-63.766;2022-12-29T04:26:07;27.90;32.40
59975;DHT22;62136;-35.664;-63.766;2022-12-29T04:28:36;27.80;32.40
59975;DHT22;62136;-35.664;-63.766;2022-12-29T04:31:06;27.80;32.40
59975;DHT22;62136;-35.664;-63.766;2022-12-29T04:33:33;27.80;32.40
59975;DHT22;62136;-35.664;-63.766;2022-12-29T04:36:00;27.80;32.40
59975;DHT22;62136;-35.664;-63.766;2022-12-29T04:38:27;27.70;32.40
59975;DHT22;62136;-35.664;-63.766;2022-12-29T04:40:54;27.70;32.30
59975;DHT22;62136;-35.664;-63.766;2022-12-29T04:43:21;27.70;32.30
59975;DHT22;62136;-35.664;-63.766;2022-12-29T04:45:49;27.70;32.40
59975;DHT22;62136;-35.664;-63.766;2022-12-29T04:48:16;27.60;32.40
59975;DHT22;62136;-35.664;-63.766;2022-12-29T04:50:43;27.60;32.50
59975;DHT22;62136;-35.664;-63.766;2022-12-29T04:53:10;27.60;32.40
59975;DHT22;62136;-35.664;-63.766;2022-12-29T04:55:37;27.60;32.50
59975;DHT22;62136;-35.664;-63.766;2022-12-29T04:58:04;27.60;32.50
59975;DHT22;62136;-35.664;-63.766;2022-12-29T05:00:31;27.50;32.50
59975;DHT22;62136;-35.664;-63.766;2022-12-29T05:02:59;27.50;32.40
59975;DHT22;62136;-35.664;-63.766;2022-12-29T05:05:26;27.60;32.50
59975;DHT22;62136;-35.664;-63.766;2022-12-29T05:07:53;27.50;32.40
59975;DHT22;62136;-35.664;-63.766;2022-12-29T05:10:20;27.50;32.50
59975;DHT22;62136;-35.664;-63.766;2022-12-29T05:12:47;27.50;32.50
59975;DHT22;62136;-35.664;-63.766;2022-12-29T05:15:14;27.50;32.60
59975;DHT22;62136;-35.664;-63.766;2022-12-29T05:17:41;27.50;32.50
59975;DHT22;62136;-35.664;-63.766;2022-12-29T05:20:09;27.50;32.60
59975;DHT22;62136;-35.664;-63.766;2022-12-29T05:22:36;27.50;32.60
59975;DHT22;62136;-35.664;-63.766;2022-12-29T05:25:03;27.50;32.60
59975;DHT22;62136;-35.664;-63.766;2022-12-29T05:27:30;27.40;32.60
59975;DHT22;62136;-35.664;-63.766;2022-12-29T05:29:57;27.40;32.60
59975;DHT22;62136;-35.664;-63.766;2022-12-29T05:32:24;27.40;32.60
59975;DHT22;62136;-35.664;-63.766;2022-12-29T05:34:51;27.40;33.10
59975;DHT22;62136;-35.664;-63.766;2022-12-29T05:37:18;27.40;32.70
59975;DHT22;62136;-35.664;-63.766;2022-12-29T05:39:45;27.30;32.80
59975;DHT22;62136;-35.664;-63.766;2022-12-29T05:42:12;27.30;32.80
59975;DHT22;62136;-35.664;-63.766;2022-12-29T05:44:39;27.20;32.80
59975;DHT22;62136;-35.664;-63.766;2022-12-29T05:47:06;27.20;32.80
59975;DHT22;62136;-35.664;-63.766;2022-12-29T05:49:33;27.20;32.90
59975;DHT22;62136;-35.664;-63.766;2022-12-29T05:52:00;27.20;32.90
59975;DHT22;62136;-35.664;-63.766;2022-12-29T05:54:27;27.10;32.90
59975;DHT22;62136;-35.664;-63.766;2022-12-29T05:56:54;27.10;32.90
59975;DHT22;62136;-35.664;-63.766;2022-12-29T05:59:21;27.10;33.00
59975;DHT22;62136;-35.664;-63.766;2022-12-29T06:01:48;27.10;33.00
59975;DHT22;62136;-35.664;-63.766;2022-12-29T06:04:15;27.10;33.00
59975;DHT22;62136;-35.664;-63.766;2022-12-29T06:06:43;27.10;32.90
59975;DHT22;62136;-35.664;-63.766;2022-12-29T06:09:10;27.00;32.90
59975;DHT22;62136;-35.664;-63.766;2022-12-29T06:11:37;27.00;33.10
59975;DHT22;62136;-35.664;-63.766;2022-12-29T06:14:06;27.10;33.10
59975;DHT22;62136;-35.664;-63.766;2022-12-29T06:16:34;27.00;33.00
59975;DHT22;62136;-35.664;-63.766;2022-12-29T06:19:01;27.00;33.10
59975;DHT22;62136;-35.664;-63.766;2022-12-29T06:21:28;27.00;33.10
59975;DHT22;62136;-35.664;-63.766;2022-12-29T06:23:55;27.00;33.10
59975;DHT22;62136;-35.664;-63.766;2022-12-29T06:26:22;27.00;33.10
59975;DHT22;62136;-35.664;-63.766;2022-12-29T06:28:52;27.00;33.10
59975;DHT22;62136;-35.664;-63.766;2022-12-29T06:31:19;27.00;33.10
59975;DHT22;62136;-35.664;-63.766;2022-12-29T06:33:46;27.00;33.30
59975;DHT22;62136;-35.664;-63.766;2022-12-29T06:36:13;27.00;33.20
59975;DHT22;62136;-35.664;-63.766;2022-12-29T06:38:40;26.90;33.20
59975;DHT22;62136;-35.664;-63.766;2022-12-29T06:41:07;27.00;33.20
59975;DHT22;62136;-35.664;-63.766;2022-12-29T06:43:34;26.90;33.10
59975;DHT22;62136;-35.664;-63.766;2022-12-29T06:46:05;26.90;33.10
59975;DHT22;62136;-35.664;-63.766;2022-12-29T06:48:32;26.90;33.20
59975;DHT22;62136;-35.664;-63.766;2022-12-29T06:50:59;26.90;33.20
59975;DHT22;62136;-35.664;-63.766;2022-12-29T06:53:26;26.90;33.20
59975;DHT22;62136;-35.664;-63.766;2022-12-29T06:55:53;26.80;33.20
59975;DHT22;62136;-35.664;-63.766;2022-12-29T06:58:20;26.80;33.20
59975;DHT22;62136;-35.664;-63.766;2022-12-29T07:00:48;26.80;33.20
59975;DHT22;62136;-35.664;-63.766;2022-12-29T07:03:15;26.80;33.20
59975;DHT22;62136;-35.664;-63.766;2022-12-29T07:05:42;26.80;33.20
59975;DHT22;62136;-35.664;-63.766;2022-12-29T07:08:12;26.80;33.20
59975;DHT22;62136;-35.664;-63.766;2022-12-29T07:10:39;26.70;33.10
59975;DHT22;62136;-35.664;-63.766;2022-12-29T07:13:06;26.70;33.20
59975;DHT22;62136;-35.664;-63.766;2022-12-29T07:15:37;26.70;33.20
59975;DHT22;62136;-35.664;-63.766;2022-12-29T07:18:04;26.70;33.30
59975;DHT22;62136;-35.664;-63.766;2022-12-29T07:20:31;26.70;33.30
59975;DHT22;62136;-35.664;-63.766;2022-12-29T07:22:59;26.70;33.30
59975;DHT22;62136;-35.664;-63.766;2022-12-29T07:25:28;26.70;33.40
59975;DHT22;62136;-35.664;-63.766;2022-12-29T07:27:56;26.70;33.40
59975;DHT22;62136;-35.664;-63.766;2022-12-29T07:30:22;26.70;33.40
59975;DHT22;62136;-35.664;-63.766;2022-12-29T07:32:49;26.70;33.50
59975;DHT22;62136;-35.664;-63.766;2022-12-29T07:35:16;26.70;33.40
59975;DHT22;62136;-35.664;-63.766;2022-12-29T07:37:43;26.60;33.40
59975;DHT22;62136;-35.664;-63.766;2022-12-29T07:40:11;26.60;33.40
59975;DHT22;62136;-35.664;-63.766;2022-12-29T07:42:39;26.60;33.40
59975;DHT22;62136;-35.664;-63.766;2022-12-29T07:45:06;26.60;33.40
59975;DHT22;62136;-35.664;-63.766;2022-12-29T07:47:33;26.60;33.30
59975;DHT22;62136;-35.664;-63.766;2022-12-29T07:50:00;26.50;33.30
59975;DHT22;62136;-35.664;-63.766;2022-12-29T07:52:27;26.50;33.30
59975;DHT22;62136;-35.664;-63.766;2022-12-29T07:54:54;26.50;33.30
59975;DHT22;62136;-35.664;-63.766;2022-12-29T07:57:21;26.50;33.30
59975;DHT22;62136;-35.664;-63.766;2022-12-29T07:59:48;26.50;33.40
59975;DHT22;62136;-35.664;-63.766;2022-12-29T08:02:15;26.50;33.50
59975;DHT22;62136;-35.664;-63.766;2022-12-29T08:04:42;26.40;33.50
59975;DHT22;62136;-35.664;-63.766;2022-12-29T08:07:09;26.40;33.50
59975;DHT22;62136;-35.664;-63.766;2022-12-29T08:09:36;26.40;33.50
59975;DHT22;62136;-35.664;-63.766;2022-12-29T08:12:03;26.40;33.50
59975;DHT22;62136;-35.664;-63.766;2022-12-29T08:14:30;26.40;33.50
59975;DHT22;62136;-35.664;-63.766;2022-12-29T08:16:57;26.40;33.50
59975;DHT22;62136;-35.664;-63.766;2022-12-29T08:19:24;26.40;33.50
59975;DHT22;62136;-35.664;-63.766;2022-12-29T08:21:53;26.30;33.50
59975;DHT22;62136;-35.664;-63.766;2022-12-29T08:24:23;26.30;33.40
59975;DHT22;62136;-35.664;-63.766;2022-12-29T08:26:50;26.30;33.40
59975;DHT22;62136;-35.664;-63.766;2022-12-29T08:29:20;26.30;33.40
59975;DHT22;62136;-35.664;-63.766;2022-12-29T08:31:47;26.30;33.40
59975;DHT22;62136;-35.664;-63.766;2022-12-29T08:34:14;26.30;33.50
59975;DHT22;62136;-35.664;-63.766;2022-12-29T08:36:41;26.30;33.60
59975;DHT22;62136;-35.664;-63.766;2022-12-29T08:39:08;26.30;33.50
59975;DHT22;62136;-35.664;-63.766;2022-12-29T08:41:35;26.30;33.60
59975;DHT22;62136;-35.664;-63.766;2022-12-29T08:44:03;26.20;33.40
59975;DHT22;62136;-35.664;-63.766;2022-12-29T08:46:30;26.20;33.60
59975;DHT22;62136;-35.664;-63.766;2022-12-29T08:48:57;26.20;33.60
59975;DHT22;62136;-35.664;-63.766;2022-12-29T08:51:24;26.20;33.70
59975;DHT22;62136;-35.664;-63.766;2022-12-29T08:53:51;26.10;33.50
59975;DHT22;62136;-35.664;-63.766;2022-12-29T08:56:18;26.10;33.50
59975;DHT22;62136;-35.664;-63.766;2022-12-29T08:58:45;26.10;33.60
59975;DHT22;62136;-35.664;-63.766;2022-12-29T09:01:12;26.10;33.60
59975;DHT22;62136;-35.664;-63.766;2022-12-29T09:03:39;26.10;33.70
59975;DHT22;62136;-35.664;-63.766;2022-12-29T09:06:07;26.00;33.50
59975;DHT22;62136;-35.664;-63.766;2022-12-29T09:08:34;26.00;33.70
59975;DHT22;62136;-35.664;-63.766;2022-12-29T09:11:13;26.00;33.70
59975;DHT22;62136;-35.664;-63.766;2022-12-29T09:13:40;26.00;33.70
59975;DHT22;62136;-35.664;-63.766;2022-12-29T09:16:08;26.00;33.60
59975;DHT22;62136;-35.664;-63.766;2022-12-29T09:18:35;26.00;33.60
59975;DHT22;62136;-35.664;-63.766;2022-12-29T09:21:04;26.00;33.70
59975;DHT22;62136;-35.664;-63.766;2022-12-29T09:23:32;25.90;33.60
59975;DHT22;62136;-35.664;-63.766;2022-12-29T09:25:59;25.90;33.60
59975;DHT22;62136;-35.664;-63.766;2022-12-29T09:28:26;25.90;33.50
59975;DHT22;62136;-35.664;-63.766;2022-12-29T09:30:55;25.90;33.60
59975;DHT22;62136;-35.664;-63.766;2022-12-29T09:33:23;25.90;33.60
59975;DHT22;62136;-35.664;-63.766;2022-12-29T09:35:55;25.90;33.70
59975;DHT22;62136;-35.664;-63.766;2022-12-29T09:38:23;25.90;33.70
59975;DHT22;62136;-35.664;-63.766;2022-12-29T09:41:05;25.80;33.60
59975;DHT22;62136;-35.664;-63.766;2022-12-29T09:46:27;25.80;33.70
59975;DHT22;62136;-35.664;-63.766;2022-12-29T09:49:26;25.80;33.70
59975;DHT22;62136;-35.664;-63.766;2022-12-29T09:52:00;25.80;33.70
59975;DHT22;62136;-35.664;-63.766;2022-12-29T10:00:20;25.80;33.70
59975;DHT22;62136;-35.664;-63.766;2022-12-29T10:02:54;25.80;33.70
59975;DHT22;62136;-35.664;-63.766;2022-12-29T10:16:42;25.80;33.60
59975;DHT22;62136;-35.664;-63.766;2022-12-29T10:19:37;25.80;33.60
59975;DHT22;62136;-35.664;-63.766;2022-12-29T10:25:23;25.80;33.50
59975;DHT22;62136;-35.664;-63.766;2022-12-29T10:27:54;25.80;33.50
59975;DHT22;62136;-35.664;-63.766;2022-12-29T10:30:23;25.80;33.40
59975;DHT22;62136;-35.664;-63.766;2022-12-29T10:33:02;25.80;33.90
59975;DHT22;62136;-35.664;-63.766;2022-12-29T10:35:35;25.80;33.50
59975;DHT22;62136;-35.664;-63.766;2022-12-29T10:40:54;25.80;33.40
59975;DHT22;62136;-35.664;-63.766;2022-12-29T10:43:43;25.90;33.50
59975;DHT22;62136;-35.664;-63.766;2022-12-29T10:46:20;25.90;33.50
59975;DHT22;62136;-35.664;-63.766;2022-12-29T10:48:48;25.90;33.40
59975;DHT22;62136;-35.664;-63.766;2022-12-29T10:57:21;26.00;33.30
59975;DHT22;62136;-35.664;-63.766;2022-12-29T10:59:48;26.00;33.20
59975;DHT22;62136;-35.664;-63.766;2022-12-29T11:02:21;26.00;33.30
59975;DHT22;62136;-35.664;-63.766;2022-12-29T11:05:06;26.10;33.30
59975;DHT22;62136;-35.664;-63.766;2022-12-29T11:07:37;26.10;33.30
59975;DHT22;62136;-35.664;-63.766;2022-12-29T11:10:41;26.10;33.20
59975;DHT22;62136;-35.664;-63.766;2022-12-29T11:13:25;26.10;33.30
59975;DHT22;62136;-35.664;-63.766;2022-12-29T11:15:53;26.10;33.40
59975;DHT22;62136;-35.664;-63.766;2022-12-29T11:21:07;26.10;33.20
59975;DHT22;62136;-35.664;-63.766;2022-12-29T11:23:41;26.20;33.30
59975;DHT22;62136;-35.664;-63.766;2022-12-29T11:26:19;26.20;33.20
59975;DHT22;62136;-35.664;-63.766;2022-12-29T11:29:22;26.20;33.20
59975;DHT22;62136;-35.664;-63.766;2022-12-29T11:31:56;26.20;33.30
59975;DHT22;62136;-35.664;-63.766;2022-12-29T11:34:27;26.20;33.20
59975;DHT22;62136;-35.664;-63.766;2022-12-29T11:42:20;26.30;33.20
59975;DHT22;62136;-35.664;-63.766;2022-12-29T11:44:49;26.30;33.30
59975;DHT22;62136;-35.664;-63.766;2022-12-29T11:47:29;26.30;33.30
59975;DHT22;62136;-35.664;-63.766;2022-12-29T11:50:06;26.30;33.10
59975;DHT22;62136;-35.664;-63.766;2022-12-29T11:52:36;26.30;33.10
59975;DHT22;62136;-35.664;-63.766;2022-12-29T11:55:13;26.40;33.10
59975;DHT22;62136;-35.664;-63.766;2022-12-29T11:57:44;26.40;33.10
59975;DHT22;62136;-35.664;-63.766;2022-12-29T12:00:18;26.40;33.30
59975;DHT22;62136;-35.664;-63.766;2022-12-29T12:08:11;26.50;33.20
59975;DHT22;62136;-35.664;-63.766;2022-12-29T12:10:50;26.50;33.10
59975;DHT22;62136;-35.664;-63.766;2022-12-29T12:16:08;26.60;33.20
59975;DHT22;62136;-35.664;-63.766;2022-12-29T12:18:52;26.60;33.30
59975;DHT22;62136;-35.664;-63.766;2022-12-29T12:21:41;26.60;33.20
59975;DHT22;62136;-35.664;-63.766;2022-12-29T12:32:46;26.70;33.20
59975;DHT22;62136;-35.664;-63.766;2022-12-29T12:49:31;26.90;33.10
59975;DHT22;62136;-35.664;-63.766;2022-12-29T13:01:29;27.00;32.90
59975;DHT22;62136;-35.664;-63.766;2022-12-29T13:15:10;27.20;32.90
59975;DHT22;62136;-35.664;-63.766;2022-12-29T13:18:06;27.20;33.00
59975;DHT22;62136;-35.664;-63.766;2022-12-29T13:25:50;27.30;32.80
59975;DHT22;62136;-35.664;-63.766;2022-12-29T13:37:20;27.40;32.80
59975;DHT22;62136;-35.664;-63.766;2022-12-29T13:39:59;27.40;32.80
59975;DHT22;62136;-35.664;-63.766;2022-12-29T13:42:28;27.50;32.90
59975;DHT22;62136;-35.664;-63.766;2022-12-29T13:45:03;27.50;32.70
59975;DHT22;62136;-35.664;-63.766;2022-12-29T13:47:37;27.60;32.70
59975;DHT22;62136;-35.664;-63.766;2022-12-29T13:50:14;27.60;32.70
59975;DHT22;62136;-35.664;-63.766;2022-12-29T14:03:58;27.70;32.40
59975;DHT22;62136;-35.664;-63.766;2022-12-29T14:06:34;27.70;32.40
59975;DHT22;62136;-35.664;-63.766;2022-12-29T14:12:27;27.80;32.40
59975;DHT22;62136;-35.664;-63.766;2022-12-29T14:15:06;27.80;32.40
59975;DHT22;62136;-35.664;-63.766;2022-12-29T14:17:41;27.90;32.40
59975;DHT22;62136;-35.664;-63.766;2022-12-29T14:20:26;27.90;32.40
59975;DHT22;62136;-35.664;-63.766;2022-12-29T14:23:02;27.90;32.30
59975;DHT22;62136;-35.664;-63.766;2022-12-29T14:28:41;28.00;32.20
59975;DHT22;62136;-35.664;-63.766;2022-12-29T14:37:41;28.10;32.10
59975;DHT22;62136;-35.664;-63.766;2022-12-29T14:40:19;28.10;32.10
59975;DHT22;62136;-35.664;-63.766;2022-12-29T14:42:56;28.10;32.10
59975;DHT22;62136;-35.664;-63.766;2022-12-29T14:45:30;28.10;32.10
59975;DHT22;62136;-35.664;-63.766;2022-12-29T14:48:25;28.10;32.00
59975;DHT22;62136;-35.664;-63.766;2022-12-29T14:50:54;28.20;32.00
59975;DHT22;62136;-35.664;-63.766;2022-12-29T14:53:45;28.30;32.10
59975;DHT22;62136;-35.664;-63.766;2022-12-29T14:56:15;28.30;31.90
59975;DHT22;62136;-35.664;-63.766;2022-12-29T15:01:51;28.30;31.80
59975;DHT22;62136;-35.664;-63.766;2022-12-29T15:04:32;28.40;31.80
59975;DHT22;62136;-35.664;-63.766;2022-12-29T15:07:00;28.40;31.80
59975;DHT22;62136;-35.664;-63.766;2022-12-29T15:12:35;28.40;31.70
59975;DHT22;62136;-35.664;-63.766;2022-12-29T15:17:44;28.50;31.60
59975;DHT22;62136;-35.664;-63.766;2022-12-29T15:23:12;28.60;31.60
59975;DHT22;62136;-35.664;-63.766;2022-12-29T15:25:55;28.60;31.50
59975;DHT22;62136;-35.664;-63.766;2022-12-29T15:28:24;28.60;32.00
59975;DHT22;62136;-35.664;-63.766;2022-12-29T15:30:56;28.70;31.50
59975;DHT22;62136;-35.664;-63.766;2022-12-29T15:33:26;28.70;31.60
59975;DHT22;62136;-35.664;-63.766;2022-12-29T15:35:56;28.70;31.50
59975;DHT22;62136;-35.664;-63.766;2022-12-29T15:38:26;28.70;31.40
59975;DHT22;62136;-35.664;-63.766;2022-12-29T15:41:00;28.80;31.50
59975;DHT22;62136;-35.664;-63.766;2022-12-29T15:46:05;28.80;31.20
59975;DHT22;62136;-35.664;-63.766;2022-12-29T15:48:32;28.90;31.20
59975;DHT22;62136;-35.664;-63.766;2022-12-29T15:51:00;28.90;31.30
59975;DHT22;62136;-35.664;-63.766;2022-12-29T15:53:32;28.90;31.30
59975;DHT22;62136;-35.664;-63.766;2022-12-29T15:56:05;29.00;31.10
59975;DHT22;62136;-35.664;-63.766;2022-12-29T15:58:42;29.00;31.20
59975;DHT22;62136;-35.664;-63.766;2022-12-29T16:01:34;29.00;31.00
59975;DHT22;62136;-35.664;-63.766;2022-12-29T16:04:07;29.00;31.00
59975;DHT22;62136;-35.664;-63.766;2022-12-29T16:06:36;29.10;31.00
59975;DHT22;62136;-35.664;-63.766;2022-12-29T16:09:06;29.10;30.90
59975;DHT22;62136;-35.664;-63.766;2022-12-29T16:11:38;29.10;30.90
59975;DHT22;62136;-35.664;-63.766;2022-12-29T16:14:14;29.20;30.90
59975;DHT22;62136;-35.664;-63.766;2022-12-29T16:16:44;29.20;30.80
59975;DHT22;62136;-35.664;-63.766;2022-12-29T16:19:17;29.20;30.70
59975;DHT22;62136;-35.664;-63.766;2022-12-29T16:21:46;29.30;30.70
59975;DHT22;62136;-35.664;-63.766;2022-12-29T16:24:20;29.20;30.80
59975;DHT22;62136;-35.664;-63.766;2022-12-29T16:29:37;29.30;30.60
59975;DHT22;62136;-35.664;-63.766;2022-12-29T16:35:22;29.40;30.50
59975;DHT22;62136;-35.664;-63.766;2022-12-29T16:38:11;29.40;30.50
59975;DHT22;62136;-35.664;-63.766;2022-12-29T16:40:51;29.40;30.40
59975;DHT22;62136;-35.664;-63.766;2022-12-29T16:48:25;29.50;30.90
59975;DHT22;62136;-35.664;-63.766;2022-12-29T16:53:35;29.60;30.50
59975;DHT22;62136;-35.664;-63.766;2022-12-29T16:56:13;29.60;30.60
59975;DHT22;62136;-35.664;-63.766;2022-12-29T16:58:41;29.70;30.50
59975;DHT22;62136;-35.664;-63.766;2022-12-29T17:01:12;29.70;30.50
59975;DHT22;62136;-35.664;-63.766;2022-12-29T17:03:55;29.70;30.30
59975;DHT22;62136;-35.664;-63.766;2022-12-29T17:06:23;29.80;30.40
59975;DHT22;62136;-35.664;-63.766;2022-12-29T17:08:52;29.70;30.30
59975;DHT22;62136;-35.664;-63.766;2022-12-29T17:11:32;29.80;30.20
59975;DHT22;62136;-35.664;-63.766;2022-12-29T17:14:30;29.80;30.20
59975;DHT22;62136;-35.664;-63.766;2022-12-29T17:16:59;29.80;30.10
59975;DHT22;62136;-35.664;-63.766;2022-12-29T17:19:33;29.80;30.10
59975;DHT22;62136;-35.664;-63.766;2022-12-29T17:22:02;29.90;30.10
59975;DHT22;62136;-35.664;-63.766;2022-12-29T17:24:29;29.90;30.00
59975;DHT22;62136;-35.664;-63.766;2022-12-29T17:26:58;29.90;30.10
59975;DHT22;62136;-35.664;-63.766;2022-12-29T17:29:32;29.90;30.30
59975;DHT22;62136;-35.664;-63.766;2022-12-29T17:32:00;30.00;30.20
59975;DHT22;62136;-35.664;-63.766;2022-12-29T17:34:28;29.90;30.00
59975;DHT22;62136;-35.664;-63.766;2022-12-29T17:36:55;29.90;30.00
59975;DHT22;62136;-35.664;-63.766;2022-12-29T17:39:22;30.00;30.10
59975;DHT22;62136;-35.664;-63.766;2022-12-29T17:41:49;30.00;30.10
59975;DHT22;62136;-35.664;-63.766;2022-12-29T17:44:18;30.00;30.00
59975;DHT22;62136;-35.664;-63.766;2022-12-29T17:46:46;30.00;30.00
59975;DHT22;62136;-35.664;-63.766;2022-12-29T17:49:16;30.10;30.00
59975;DHT22;62136;-35.664;-63.766;2022-12-29T17:51:45;30.10;30.00
59975;DHT22;62136;-35.664;-63.766;2022-12-29T17:54:24;30.10;30.00
59975;DHT22;62136;-35.664;-63.766;2022-12-29T17:56:51;30.20;29.90
59975;DHT22;62136;-35.664;-63.766;2022-12-29T17:59:18;30.20;29.90
59975;DHT22;62136;-35.664;-63.766;2022-12-29T18:01:47;30.20;29.80
59975;DHT22;62136;-35.664;-63.766;2022-12-29T18:04:18;30.20;29.80
59975;DHT22;62136;-35.664;-63.766;2022-12-29T18:09:19;30.20;29.70
59975;DHT22;62136;-35.664;-63.766;2022-12-29T18:11:47;30.20;29.70
59975;DHT22;62136;-35.664;-63.766;2022-12-29T18:14:15;30.30;29.80
59975;DHT22;62136;-35.664;-63.766;2022-12-29T18:16:43;30.20;29.70
59975;DHT22;62136;-35.664;-63.766;2022-12-29T18:19:10;30.30;29.80